ブエノスアイレス/エセイサ の空港の天気 - METARとTAF

エセイサ国際空港 ( SAEZ / EZE ) - アルゼンチン ブエノスアイレス州、Ezeiza
飛行場実況気象(Metar)
観測時間01/19 12:00 ART (01/19 15:00 UTC)
風向・風速不定 1m/s
視程10km以上
天気現象
全天の8割程度の雲 雲底高度 1370m
気温24℃
湿度54%
気圧1023hPa
METARSAEZ 191500Z VRB02KT 9999 BKN045 24/14 Q1023 NOSIG
過去の天気等 Google飛行場航空写真 Wunderground天気予報

過去48時間のMETAR

飛行場予報(TAF)
発表時間: 1/19 08:00 ART (1/19 11:00 UTC)
予報対象時間: 19日9時 ART ~ 20日9時 ART
風向・風速南東 5m/s
視程10km以上
なし
19日15時 ART ~ 19日18時 ART に徐々に
風向・風速東 5m/s
視程10km以上
全天の4割程度の雲 雲底高度 910m
20日2時 ART ~ 20日6時 ART に徐々に
風向・風速北 5m/s
TAF SAEZ 191100Z 1912/2012 14010KT CAVOK TX26/1918Z TN17/2010Z
BECMG 1918/1921 09010KT 9999 SCT030
BECMG 2005/2009 36010KT